Time;durP1;ratioP1;P1;durP2;ratioP2;P2;SDS_P1;SDS_P2;PMS_P1;PMS_P2;Temp;Humidity;BMP_temperature;BMP_pressure;BME280_temperature;BME280_humidity;BME280_pressure;Samples;Min_cycle;Max_cycle;Signal;HPM_P1;HPM_P2
2022/05/19 00:00:06;;;;;;;5.40;2.60;;;17.10;93.60;;;;;;4940445;29;20465;-69
2022/05/19 00:02:37;;;;;;;2.87;2.33;;;17.10;93.80;;;;;;4933732;29;20548;-68
2022/05/19 00:05:10;;;;;;;3.23;2.10;;;17.20;93.60;;;;;;4938053;29;20528;-69
2022/05/19 00:07:41;;;;;;;7.07;2.50;;;17.20;93.50;;;;;;4938206;29;20577;-68
2022/05/19 00:10:12;;;;;;;3.30;2.30;;;17.10;93.20;;;;;;4943865;29;20427;-68
2022/05/19 00:12:43;;;;;;;6.23;2.73;;;17.00;94.20;;;;;;4937214;29;20476;-68
2022/05/19 00:15:15;;;;;;;4.73;2.47;;;17.10;95.10;;;;;;4943470;29;20496;-68
2022/05/19 00:17:47;;;;;;;3.50;2.20;;;17.10;94.50;;;;;;4944194;29;20502;-67
2022/05/19 00:20:18;;;;;;;5.63;2.60;;;17.40;93.70;;;;;;4928597;29;20510;-68
2022/05/19 00:22:49;;;;;;;8.33;2.60;;;17.40;93.40;;;;;;4932983;29;20954;-67
2022/05/19 00:25:20;;;;;;;5.43;2.27;;;17.40;94.20;;;;;;4941577;29;20465;-69
2022/05/19 00:27:51;;;;;;;5.10;2.50;;;17.10;93.30;;;;;;4941938;29;22233;-67
2022/05/19 00:30:23;;;;;;;4.70;2.70;;;17.10;92.70;;;;;;4937655;29;20474;-71
2022/05/19 00:32:54;;;;;;;4.90;2.50;;;16.90;92.30;;;;;;4940711;29;20449;-67
2022/05/19 00:35:25;;;;;;;4.10;2.40;;;16.80;93.00;;;;;;4946009;29;20470;-68
2022/05/19 00:37:55;;;;;;;5.93;2.23;;;17.00;93.20;;;;;;4948266;29;20433;-67
2022/05/19 00:40:27;;;;;;;3.13;1.83;;;17.30;92.80;;;;;;4939139;29;20477;-68
2022/05/19 00:42:57;;;;;;;6.10;2.23;;;17.20;93.00;;;;;;4940533;29;20469;-69
2022/05/19 00:45:41;;;;;;;4.77;2.37;;;17.00;92.70;;;;;;4946948;29;20476;-69
2022/05/19 00:48:20;;;;;;;3.63;1.90;;;16.80;92.90;;;;;;4944978;29;20461;-70
2022/05/19 00:50:57;;;;;;;3.80;2.50;;;16.70;92.80;;;;;;4941771;29;20822;-67
2022/05/19 00:53:34;;;;;;;2.73;1.93;;;16.50;93.70;;;;;;4946144;29;20922;-68
2022/05/19 00:56:10;;;;;;;3.77;2.17;;;16.60;93.50;;;;;;4946125;29;20453;-68
2022/05/19 00:58:48;;;;;;;5.17;2.53;;;16.70;94.10;;;;;;4942165;29;20461;-69
2022/05/19 01:01:21;;;;;;;4.97;2.00;;;16.80;92.70;;;;;;4940232;29;20506;-68
2022/05/19 01:03:57;;;;;;;2.87;2.03;;;16.70;93.60;;;;;;4940198;29;20513;-69
2022/05/19 01:06:29;;;;;;;3.90;2.30;;;16.80;93.00;;;;;;4937551;29;20476;-68
2022/05/19 01:09:03;;;;;;;3.07;2.20;;;16.80;93.50;;;;;;4939555;29;20492;-68
2022/05/19 01:11:36;;;;;;;4.60;2.53;;;16.70;93.40;;;;;;4939614;29;20465;-67
2022/05/19 01:14:07;;;;;;;3.80;2.73;;;16.70;93.30;;;;;;4928412;29;20925;-67
2022/05/19 01:16:41;;;;;;;3.10;1.93;;;16.70;92.80;;;;;;4935286;29;20506;-67
2022/05/19 01:19:23;;;;;;;4.40;2.57;;;16.70;92.40;;;;;;4934403;29;20474;-68
2022/05/19 01:21:58;;;;;;;5.33;2.73;;;16.60;91.80;;;;;;4938312;29;20660;-65
2022/05/19 01:24:35;;;;;;;4.60;2.80;;;16.50;91.80;;;;;;4932643;29;20472;-66
2022/05/19 01:27:08;;;;;;;4.93;2.53;;;16.50;92.30;;;;;;4936507;29;20584;-64
2022/05/19 01:29:39;;;;;;;5.60;2.63;;;16.20;92.60;;;;;;4940868;29;20443;-63
2022/05/19 01:32:24;;;;;;;4.97;2.60;;;16.40;93.30;;;;;;4942304;29;20478;-64
2022/05/19 01:34:55;;;;;;;3.27;2.40;;;16.50;92.70;;;;;;4930954;29;20474;-64
2022/05/19 01:37:26;;;;;;;6.77;2.90;;;16.60;92.60;;;;;;4937417;29;20485;-67
2022/05/19 01:40:02;;;;;;;6.33;2.40;;;16.50;92.00;;;;;;4945223;29;20449;-65
2022/05/19 01:42:45;;;;;;;7.10;2.73;;;16.40;92.20;;;;;;4942456;29;20552;-65
2022/05/19 01:45:36;;;;;;;6.13;2.67;;;16.30;92.80;;;;;;4944791;29;20489;-65
2022/05/19 01:48:12;;;;;;;3.23;2.27;;;16.00;92.70;;;;;;4935483;29;20609;-66
2022/05/19 01:50:49;;;;;;;8.00;3.03;;;16.00;94.30;;;;;;4936098;29;20449;-66
2022/05/19 01:53:26;;;;;;;5.30;2.47;;;16.10;93.80;;;;;;4941105;29;20473;-66
2022/05/19 01:56:06;;;;;;;4.60;2.30;;;16.20;94.60;;;;;;4944968;29;20471;-67
2022/05/19 01:58:45;;;;;;;4.00;2.40;;;16.20;94.70;;;;;;4939283;29;20469;-68
2022/05/19 02:01:18;;;;;;;9.17;2.63;;;16.10;94.80;;;;;;4938177;29;20771;-66
2022/05/19 02:03:59;;;;;;;6.20;2.80;;;16.20;94.90;;;;;;4931401;29;20470;-65
2022/05/19 02:06:35;;;;;;;5.83;3.17;;;16.20;94.00;;;;;;4942555;29;20464;-66
2022/05/19 02:09:15;;;;;;;5.60;2.83;;;16.00;93.40;;;;;;4934198;29;20495;-67
2022/05/19 02:11:51;;;;;;;3.53;2.53;;;15.70;92.40;;;;;;4936164;29;20476;-68
2022/05/19 02:14:27;;;;;;;4.77;2.57;;;15.60;93.40;;;;;;4941575;29;20539;-67
2022/05/19 02:16:59;;;;;;;4.63;2.87;;;15.40;93.10;;;;;;4946048;29;20434;-67
2022/05/19 02:19:35;;;;;;;4.40;2.40;;;15.20;93.30;;;;;;4943630;29;20462;-68
2022/05/19 02:22:08;;;;;;;5.90;2.70;;;15.00;93.90;;;;;;4937455;29;20490;-68
2022/05/19 02:24:44;;;;;;;6.83;3.90;;;14.80;93.50;;;;;;4927900;29;20534;-67
2022/05/19 02:27:32;;;;;;;4.27;2.30;;;14.70;94.10;;;;;;4937809;29;20465;-67
2022/05/19 02:30:09;;;;;;;4.53;2.87;;;14.60;93.90;;;;;;4939981;29;20457;-67
2022/05/19 02:32:40;;;;;;;4.50;2.20;;;14.50;95.30;;;;;;4931611;29;20631;-67
2022/05/19 02:35:12;;;;;;;10.10;2.80;;;14.40;94.90;;;;;;4937160;29;20467;-66
2022/05/19 02:37:43;;;;;;;6.00;3.50;;;14.50;95.50;;;;;;4944620;29;20470;-68
2022/05/19 02:40:17;;;;;;;5.37;2.80;;;14.50;95.00;;;;;;4938143;29;20488;-66
2022/05/19 02:42:49;;;;;;;6.70;3.17;;;14.50;95.80;;;;;;4938305;29;20504;-66
2022/05/19 02:45:23;;;;;;;4.33;2.40;;;14.50;96.00;;;;;;4937644;29;20490;-69
2022/05/19 02:47:54;;;;;;;2.70;2.40;;;14.40;95.90;;;;;;4941035;29;20464;-67
2022/05/19 02:50:25;;;;;;;2.20;2.00;;;14.40;96.50;;;;;;4931410;29;20443;-68
2022/05/19 02:52:56;;;;;;;4.73;3.00;;;14.40;95.60;;;;;;4935086;29;20469;-66
2022/05/19 02:55:27;;;;;;;3.80;2.60;;;14.40;95.30;;;;;;4936187;29;20490;-67
2022/05/19 02:57:58;;;;;;;5.40;2.30;;;14.30;95.70;;;;;;4937898;29;20470;-68
2022/05/19 03:00:31;;;;;;;4.90;2.43;;;14.20;95.70;;;;;;4940959;29;20480;-68
2022/05/19 03:03:02;;;;;;;7.43;2.87;;;14.20;96.70;;;;;;4943759;29;20814;-67
2022/05/19 03:05:34;;;;;;;7.30;2.60;;;14.30;97.10;;;;;;4940499;29;20500;-66
2022/05/19 03:08:08;;;;;;;4.07;2.40;;;14.20;97.00;;;;;;4942565;29;20458;-66
2022/05/19 03:10:40;;;;;;;5.63;3.27;;;14.00;96.20;;;;;;4927155;29;20531;-66
2022/05/19 03:13:18;;;;;;;3.93;3.27;;;13.90;96.20;;;;;;4926651;29;20471;-66
2022/05/19 03:15:51;;;;;;;6.30;2.67;;;13.90;95.70;;;;;;4934857;29;20496;-66
2022/05/19 03:18:22;;;;;;;4.83;2.40;;;13.80;96.20;;;;;;4936493;29;20560;-64
2022/05/19 03:20:53;;;;;;;6.07;2.70;;;13.70;96.40;;;;;;4933922;29;20474;-65
2022/05/19 03:23:24;;;;;;;4.37;2.37;;;13.60;95.80;;;;;;4944187;29;20817;-64
2022/05/19 03:25:56;;;;;;;4.80;2.30;;;13.50;96.20;;;;;;4934950;29;20908;-65
2022/05/19 03:28:28;;;;;;;6.63;2.47;;;13.30;96.10;;;;;;4928033;29;20574;-66
2022/05/19 03:31:01;;;;;;;5.20;2.70;;;13.20;96.80;;;;;;4941385;29;20465;-64
2022/05/19 03:33:32;;;;;;;3.20;2.03;;;13.10;96.70;;;;;;4944179;29;20509;-64
2022/05/19 03:36:05;;;;;;;2.60;1.97;;;13.00;96.50;;;;;;4939610;29;20461;-65
2022/05/19 03:38:36;;;;;;;4.10;2.50;;;13.00;96.60;;;;;;4943304;29;21129;-65
2022/05/19 03:41:07;;;;;;;6.00;2.57;;;12.80;96.50;;;;;;4933268;29;20815;-66
2022/05/19 03:43:37;;;;;;;3.40;2.17;;;12.70;96.90;;;;;;4935722;29;20501;-66
2022/05/19 03:46:10;;;;;;;7.27;2.30;;;12.60;97.50;;;;;;4925404;29;20565;-65
2022/05/19 03:48:41;;;;;;;5.67;2.93;;;12.50;97.50;;;;;;4930537;29;20480;-65
2022/05/19 03:51:15;;;;;;;4.00;2.30;;;12.40;98.90;;;;;;4943554;29;20533;-65
2022/05/19 03:53:45;;;;;;;6.40;3.00;;;12.40;98.30;;;;;;4931375;29;20688;-65
2022/05/19 03:56:16;;;;;;;4.13;2.60;;;12.40;97.60;;;;;;4926671;29;20485;-67
2022/05/19 03:58:48;;;;;;;4.83;2.97;;;12.30;96.90;;;;;;4941725;29;20470;-66
2022/05/19 04:01:22;;;;;;;4.63;2.37;;;12.30;97.60;;;;;;4937611;29;20526;-65
2022/05/19 04:03:54;;;;;;;4.23;2.20;;;12.30;98.00;;;;;;4933723;29;20515;-66
2022/05/19 04:06:25;;;;;;;5.73;2.63;;;12.20;97.80;;;;;;4929083;29;20502;-66
2022/05/19 04:08:56;;;;;;;3.97;2.60;;;12.10;98.30;;;;;;4934831;29;20496;-67
2022/05/19 04:11:27;;;;;;;3.90;2.60;;;12.00;98.70;;;;;;4940419;29;20493;-66
2022/05/19 04:13:58;;;;;;;8.10;2.67;;;12.00;99.10;;;;;;4946192;29;20458;-66
2022/05/19 04:16:30;;;;;;;3.63;2.37;;;11.90;99.20;;;;;;4937187;29;20462;-67
2022/05/19 04:19:02;;;;;;;2.73;1.90;;;11.90;99.70;;;;;;4929937;29;20463;-66
2022/05/19 04:21:33;;;;;;;3.10;2.20;;;11.80;99.80;;;;;;4945240;29;20529;-66
2022/05/19 04:24:06;;;;;;;7.30;3.07;;;11.80;99.90;;;;;;4945345;29;20529;-66
2022/05/19 04:26:37;;;;;;;7.13;2.80;;;11.70;99.90;;;;;;4938751;29;20561;-67
2022/05/19 04:29:08;;;;;;;6.10;2.30;;;11.70;99.90;;;;;;4943183;29;20556;-67
2022/05/19 04:31:40;;;;;;;6.37;3.20;;;11.60;99.90;;;;;;4931121;29;20605;-67
2022/05/19 04:34:12;;;;;;;6.00;2.77;;;11.50;99.90;;;;;;4942084;29;20479;-67
2022/05/19 04:36:42;;;;;;;6.13;2.57;;;11.40;99.90;;;;;;4943910;29;20467;-67
2022/05/19 04:39:13;;;;;;;5.87;2.67;;;11.40;99.90;;;;;;4930396;29;20458;-67
2022/05/19 04:41:44;;;;;;;6.73;3.10;;;11.40;99.90;;;;;;4930314;29;20477;-66
2022/05/19 04:44:15;;;;;;;7.63;2.87;;;11.20;99.90;;;;;;4935124;29;20549;-67
2022/05/19 04:46:47;;;;;;;4.40;2.53;;;11.30;99.90;;;;;;4935728;29;20565;-67
2022/05/19 04:49:19;;;;;;;3.30;2.60;;;11.20;99.90;;;;;;4945941;29;20460;-66
2022/05/19 04:51:50;;;;;;;6.60;3.10;;;11.10;99.90;;;;;;4936005;29;20458;-66
2022/05/19 04:54:21;;;;;;;4.60;2.37;;;11.10;99.90;;;;;;4931214;29;20471;-67
2022/05/19 04:56:52;;;;;;;4.40;2.90;;;11.10;99.90;;;;;;4940582;29;20970;-66
2022/05/19 04:59:23;;;;;;;4.57;3.07;;;11.00;99.90;;;;;;4944126;29;20474;-67
2022/05/19 05:01:55;;;;;;;4.57;2.97;;;10.90;99.90;;;;;;4945183;29;20568;-66
2022/05/19 05:04:27;;;;;;;6.80;3.57;;;10.80;99.90;;;;;;4930279;29;20959;-67
2022/05/19 05:07:00;;;;;;;4.57;3.17;;;10.70;99.90;;;;;;4941913;29;20462;-67
2022/05/19 05:09:30;;;;;;;4.70;2.90;;;10.60;99.90;;;;;;4941381;29;20470;-67
2022/05/19 05:12:01;;;;;;;4.73;2.60;;;10.70;99.90;;;;;;4937473;29;20525;-66
2022/05/19 05:14:35;;;;;;;8.87;3.90;;;10.70;99.90;;;;;;4945526;29;20486;-67
2022/05/19 05:17:07;;;;;;;5.00;3.30;;;10.60;99.90;;;;;;4930809;29;20470;-67
2022/05/19 05:19:38;;;;;;;5.50;3.13;;;10.60;99.90;;;;;;4932598;29;20477;-66
2022/05/19 05:22:09;;;;;;;4.70;2.90;;;10.60;99.90;;;;;;4938688;29;20462;-66
2022/05/19 05:24:40;;;;;;;10.67;3.33;;;10.60;99.90;;;;;;4937677;29;20502;-66
2022/05/19 05:27:11;;;;;;;5.10;3.40;;;10.50;99.90;;;;;;4935209;29;20518;-67
2022/05/19 05:29:41;;;;;;;8.57;3.77;;;10.50;99.90;;;;;;4938177;29;20473;-66
2022/05/19 05:32:16;;;;;;;6.00;3.10;;;10.40;99.90;;;;;;4939506;29;20535;-66
2022/05/19 05:34:46;;;;;;;5.70;3.67;;;10.30;99.90;;;;;;4940081;29;20466;-65
2022/05/19 05:37:17;;;;;;;3.23;2.80;;;10.30;99.90;;;;;;4944386;29;20824;-66
2022/05/19 05:39:48;;;;;;;5.03;2.70;;;10.30;99.90;;;;;;4932262;29;20577;-67
2022/05/19 05:42:19;;;;;;;4.97;2.80;;;10.20;99.90;;;;;;4943172;29;20465;-66
2022/05/19 05:44:50;;;;;;;5.87;2.70;;;10.20;99.90;;;;;;4939275;29;20497;-66
2022/05/19 05:47:29;;;;;;;9.50;3.60;;;10.20;99.90;;;;;;4945998;29;20458;-67
2022/05/19 05:50:08;;;;;;;5.28;3.20;;;10.20;99.90;;;;;;4936813;29;20447;-67
2022/05/19 05:52:38;;;;;;;3.70;2.70;;;10.20;99.90;;;;;;4936970;29;20198;-67
2022/05/19 05:55:10;;;;;;;6.32;3.33;;;10.10;99.90;;;;;;4935654;29;20462;-67
2022/05/19 05:57:40;;;;;;;8.45;3.25;;;10.10;99.90;;;;;;4927942;29;20214;-66
2022/05/19 06:00:13;;;;;;;5.68;3.20;;;10.10;99.90;;;;;;4927015;29;20222;-66
2022/05/19 06:02:45;;;;;;;3.20;2.38;;;10.00;99.90;;;;;;4936025;29;20210;-65
2022/05/19 06:05:16;;;;;;;7.20;3.60;;;9.90;99.90;;;;;;4941518;29;20237;-67
2022/05/19 06:07:47;;;;;;;8.37;3.07;;;9.90;99.90;;;;;;4943241;29;20477;-67
2022/05/19 06:10:18;;;;;;;8.43;3.33;;;9.80;99.90;;;;;;4937334;29;20462;-66
2022/05/19 06:12:49;;;;;;;2.77;2.57;;;9.70;99.90;;;;;;4944414;29;20221;-66
2022/05/19 06:15:20;;;;;;;4.80;3.95;;;9.70;99.90;;;;;;4943589;29;20493;-66
2022/05/19 06:17:52;;;;;;;8.13;3.37;;;9.60;99.90;;;;;;4930775;29;20210;-65
2022/05/19 06:20:23;;;;;;;8.32;3.65;;;9.60;99.90;;;;;;4935451;29;20451;-67
2022/05/19 06:22:54;;;;;;;4.67;2.90;;;9.50;99.90;;;;;;4928221;29;20206;-65
2022/05/19 06:25:26;;;;;;;3.58;2.55;;;9.40;99.90;;;;;;4926812;29;20505;-66
2022/05/19 06:27:58;;;;;;;4.07;2.63;;;9.40;99.90;;;;;;4944948;29;20270;-66
2022/05/19 06:30:30;;;;;;;8.07;2.50;;;9.50;99.90;;;;;;4934116;29;20210;-66
2022/05/19 06:33:02;;;;;;;6.20;3.33;;;9.50;99.90;;;;;;4940692;29;20478;-66
2022/05/19 06:35:34;;;;;;;3.42;3.13;;;9.60;99.90;;;;;;4935143;29;20465;-66
2022/05/19 06:38:05;;;;;;;7.22;2.92;;;9.70;99.90;;;;;;4927232;29;20247;-65
2022/05/19 06:40:36;;;;;;;4.67;2.87;;;9.60;99.90;;;;;;4932090;29;20222;-65
2022/05/19 06:43:10;;;;;;;4.15;2.75;;;9.70;99.90;;;;;;4929522;29;20470;-66
2022/05/19 06:45:41;;;;;;;3.37;2.47;;;9.70;99.90;;;;;;4943179;29;20297;-66
2022/05/19 06:48:14;;;;;;;9.00;3.00;;;9.80;99.90;;;;;;4939772;29;20470;-66
2022/05/19 06:50:45;;;;;;;3.00;2.70;;;9.90;99.90;;;;;;4929386;29;20499;-67
2022/05/19 06:53:15;;;;;;;5.73;3.30;;;9.90;99.90;;;;;;4930021;29;20464;-66
2022/05/19 06:55:46;;;;;;;2.95;2.67;;;10.00;99.90;;;;;;4937871;29;20554;-66
2022/05/19 06:58:17;;;;;;;7.63;2.70;;;10.10;99.90;;;;;;4940212;29;20217;-66
2022/05/19 07:00:48;;;;;;;4.20;2.40;;;10.20;99.90;;;;;;4933144;29;20468;-66
2022/05/19 07:03:20;;;;;;;6.23;2.70;;;10.30;99.90;;;;;;4940300;29;20469;-66
2022/05/19 07:05:51;;;;;;;6.17;3.10;;;10.40;99.90;;;;;;4943267;29;20508;-66
2022/05/19 07:08:22;;;;;;;6.07;3.00;;;10.40;99.90;;;;;;4945193;29;20457;-66
2022/05/19 07:10:53;;;;;;;6.73;3.13;;;10.40;99.90;;;;;;4941034;29;20917;-66
2022/05/19 07:13:24;;;;;;;4.63;3.47;;;10.40;99.90;;;;;;4929953;29;20473;-67
2022/05/19 07:15:55;;;;;;;7.00;3.33;;;10.50;99.90;;;;;;4937187;29;20496;-67
2022/05/19 07:18:27;;;;;;;5.43;2.87;;;10.50;99.90;;;;;;4939670;29;20493;-67
2022/05/19 07:20:57;;;;;;;3.73;2.80;;;10.50;99.90;;;;;;4939687;29;20455;-66
2022/05/19 07:23:28;;;;;;;5.33;3.30;;;10.60;99.90;;;;;;4935434;29;20482;-67
2022/05/19 07:25:59;;;;;;;6.00;3.60;;;10.60;99.90;;;;;;4928878;29;20493;-67
2022/05/19 07:28:29;;;;;;;4.93;2.83;;;10.60;99.90;;;;;;4934330;29;20470;-66
2022/05/19 07:31:00;;;;;;;4.47;3.20;;;10.60;99.90;;;;;;4943436;29;20470;-66
2022/05/19 07:33:36;;;;;;;5.43;3.17;;;10.70;99.90;;;;;;4942990;29;20466;-67
2022/05/19 07:36:08;;;;;;;6.23;2.70;;;10.70;99.90;;;;;;4930279;29;20485;-66
2022/05/19 07:38:39;;;;;;;7.70;2.77;;;10.60;99.90;;;;;;4940930;29;20481;-66
2022/05/19 07:41:10;;;;;;;5.93;2.70;;;10.60;99.90;;;;;;4927901;29;20454;-67
2022/05/19 07:43:42;;;;;;;4.07;3.43;;;10.60;99.90;;;;;;4942678;29;20469;-66
2022/05/19 07:46:18;;;;;;;6.70;3.30;;;10.60;99.90;;;;;;4936328;29;20497;-67
2022/05/19 07:48:53;;;;;;;4.73;3.33;;;10.50;99.90;;;;;;4941456;29;20533;-66
2022/05/19 07:51:24;;;;;;;7.43;3.10;;;10.50;99.90;;;;;;4942603;29;20957;-66
2022/05/19 07:53:56;;;;;;;4.40;3.57;;;10.50;99.90;;;;;;4940775;29;20469;-66
2022/05/19 07:56:27;;;;;;;5.17;2.97;;;10.50;99.90;;;;;;4943769;29;20477;-66
2022/05/19 07:58:58;;;;;;;7.03;3.27;;;10.40;99.90;;;;;;4942058;29;20492;-67
2022/05/19 08:01:29;;;;;;;7.63;2.70;;;10.40;99.90;;;;;;4946009;29;20478;-66
2022/05/19 08:04:02;;;;;;;4.23;2.80;;;10.30;99.90;;;;;;4936551;29;20469;-66
2022/05/19 08:06:33;;;;;;;5.80;3.20;;;10.30;99.90;;;;;;4946553;29;20502;-67
2022/05/19 08:10:20;;;;;;;6.90;2.93;;;10.30;99.90;;;;;;4944676;29;20476;-67
2022/05/19 08:11:57;;;;;;;6.70;2.80;;;10.30;99.90;;;;;;4946729;29;20472;-67
2022/05/19 08:17:31;;;;;;;7.20;3.60;;;10.30;99.90;;;;;;4944970;29;20779;-66
2022/05/19 08:20:04;;;;;;;4.70;3.07;;;10.20;99.90;;;;;;4946535;29;20480;-66
2022/05/19 08:22:35;;;;;;;7.60;3.40;;;10.20;99.90;;;;;;4945947;29;20885;-66
2022/05/19 08:25:07;;;;;;;4.70;3.23;;;10.20;99.90;;;;;;4939267;29;20974;-67
2022/05/19 08:27:37;;;;;;;8.43;3.60;;;10.20;99.90;;;;;;4932145;29;20542;-67
2022/05/19 08:30:09;;;;;;;4.60;3.00;;;10.10;99.90;;;;;;4936017;29;20466;-66
2022/05/19 08:32:40;;;;;;;6.13;2.73;;;10.10;99.90;;;;;;4944173;29;20492;-67
2022/05/19 08:35:13;;;;;;;6.73;3.40;;;10.10;99.90;;;;;;4946701;29;20906;-66
2022/05/19 08:37:45;;;;;;;9.53;3.90;;;10.10;99.90;;;;;;4945930;29;20545;-66
2022/05/19 08:40:16;;;;;;;8.10;4.10;;;10.10;99.90;;;;;;4931182;29;20454;-67
2022/05/19 08:42:50;;;;;;;5.90;3.10;;;10.10;99.90;;;;;;4930605;29;20493;-67
2022/05/19 08:45:26;;;;;;;4.80;2.70;;;10.10;99.90;;;;;;4934292;29;20500;-67
2022/05/19 08:48:05;;;;;;;7.30;3.83;;;10.20;99.90;;;;;;4943400;29;20501;-67
2022/05/19 08:50:47;;;;;;;3.70;3.40;;;10.20;99.90;;;;;;4943572;29;20477;-67
2022/05/19 08:53:18;;;;;;;5.53;2.93;;;10.20;99.90;;;;;;4928357;29;21109;-67
2022/05/19 08:55:52;;;;;;;3.40;2.67;;;10.20;99.90;;;;;;4933394;29;20458;-67
2022/05/19 08:59:06;;;;;;;6.43;2.73;;;10.20;99.90;;;;;;4941471;29;20481;-67
2022/05/19 09:01:42;;;;;;;6.97;2.87;;;10.20;99.90;;;;;;4905170;29;20478;-67
2022/05/19 09:04:26;;;;;;;3.77;2.80;;;10.20;99.90;;;;;;4905511;29;20530;-67
2022/05/19 09:10:04;;;;;;;7.20;3.43;;;10.10;99.90;;;;;;4892694;29;20468;-67
2022/05/19 09:12:39;;;;;;;6.30;2.90;;;10.00;99.90;;;;;;4891957;29;20463;-67
2022/05/19 09:15:12;;;;;;;9.00;2.97;;;10.00;99.90;;;;;;4901255;29;20497;-67
2022/05/19 09:17:47;;;;;;;4.27;2.63;;;9.90;99.90;;;;;;4895067;29;20452;-67
2022/05/19 09:20:23;;;;;;;4.97;2.70;;;9.80;99.90;;;;;;4892316;29;20498;-66
2022/05/19 09:23:00;;;;;;;5.57;3.10;;;9.50;99.90;;;;;;4887954;29;20496;-67
2022/05/19 09:25:31;;;;;;;4.95;2.97;;;9.40;99.90;;;;;;4893996;29;20467;-66
2022/05/19 09:28:03;;;;;;;7.60;3.07;;;9.30;99.90;;;;;;4895441;29;20631;-66
2022/05/19 09:30:38;;;;;;;5.40;2.78;;;9.20;99.90;;;;;;4900182;29;20482;-67
2022/05/19 09:33:15;;;;;;;6.75;3.00;;;9.10;99.90;;;;;;4901756;29;20200;-67
2022/05/19 09:35:52;;;;;;;8.15;2.50;;;9.20;99.90;;;;;;4924885;29;20225;-67
2022/05/19 09:38:37;;;;;;;6.70;2.72;;;9.10;99.90;;;;;;4944943;29;20209;-67
2022/05/19 09:41:21;;;;;;;5.25;2.78;;;9.30;99.90;;;;;;4933688;29;20599;-66
2022/05/19 09:43:55;;;;;;;5.17;3.87;;;9.20;99.90;;;;;;4936028;29;20647;-67
2022/05/19 09:46:33;;;;;;;3.20;2.37;;;9.20;99.90;;;;;;4937444;29;20511;-67
2022/05/19 09:49:06;;;;;;;4.95;3.00;;;9.30;99.90;;;;;;4944391;29;20476;-67
2022/05/19 09:51:43;;;;;;;3.35;2.25;;;9.30;99.90;;;;;;4933401;29;20210;-67
2022/05/19 09:54:16;;;;;;;4.38;3.08;;;9.40;99.90;;;;;;4940138;29;20206;-66
2022/05/19 09:56:49;;;;;;;5.93;3.13;;;9.40;99.90;;;;;;4941210;29;20560;-67
2022/05/19 09:59:26;;;;;;;6.03;2.70;;;9.50;99.90;;;;;;4940559;29;20458;-66
2022/05/19 10:02:08;;;;;;;3.15;2.50;;;9.50;99.90;;;;;;4940679;29;20480;-66
2022/05/19 10:04:42;;;;;;;5.07;2.53;;;9.50;99.90;;;;;;4927281;29;20210;-66
2022/05/19 10:07:22;;;;;;;8.53;3.47;;;9.50;99.90;;;;;;4942252;29;20501;-66
2022/05/19 10:09:56;;;;;;;5.90;2.43;;;9.50;99.90;;;;;;4942609;29;20486;-66
2022/05/19 10:12:29;;;;;;;4.85;2.75;;;9.50;99.90;;;;;;4929569;29;20458;-66
2022/05/19 10:15:02;;;;;;;6.90;2.83;;;9.60;99.90;;;;;;4942366;29;20253;-66
2022/05/19 10:17:46;;;;;;;9.35;3.03;;;9.50;99.90;;;;;;4944519;29;20465;-67
2022/05/19 10:20:23;;;;;;;3.70;2.63;;;9.40;99.90;;;;;;4943750;29;20298;-66
2022/05/19 10:23:39;;;;;;;4.47;2.78;;;9.30;99.90;;;;;;4944394;29;20458;-66
2022/05/19 10:26:24;;;;;;;8.27;3.70;;;9.40;99.90;;;;;;4929826;29;20242;-66
2022/05/19 10:32:26;;;;;;;7.53;4.70;;;9.60;99.90;;;;;;4937951;29;20640;-66
2022/05/19 10:35:04;;;;;;;7.30;3.87;;;9.60;99.90;;;;;;4940622;29;20473;-66
2022/05/19 10:37:51;;;;;;;7.83;3.40;;;9.60;99.90;;;;;;4933616;29;20536;-66
2022/05/19 10:40:41;;;;;;;5.45;3.40;;;9.60;99.90;;;;;;4930243;29;20471;-66
2022/05/19 10:43:27;;;;;;;6.60;3.40;;;9.80;99.90;;;;;;4929088;29;20217;-66
2022/05/19 10:46:01;;;;;;;4.57;3.05;;;9.70;99.90;;;;;;4935811;29;20493;-66
2022/05/19 10:49:14;;;;;;;7.97;3.80;;;9.70;99.90;;;;;;4941121;29;20284;-66
2022/05/19 10:51:54;;;;;;;8.60;3.30;;;9.60;99.90;;;;;;4884245;29;20490;-66
2022/05/19 10:54:58;;;;;;;4.63;3.13;;;9.60;99.90;;;;;;4882898;29;20468;-66
2022/05/19 10:57:45;;;;;;;10.63;5.70;;;9.70;99.90;;;;;;4875496;29;20689;-66
2022/05/19 11:00:22;;;;;;;7.27;3.20;;;9.60;99.90;;;;;;4868662;29;20453;-66
2022/05/19 11:03:20;;;;;;;7.40;3.47;;;9.60;99.90;;;;;;4884822;29;20469;-67
2022/05/19 11:06:01;;;;;;;4.53;2.80;;;9.50;99.90;;;;;;4881817;29;20474;-66
2022/05/19 11:08:44;;;;;;;3.75;3.38;;;9.50;99.90;;;;;;4871183;29;20488;-65
2022/05/19 11:11:20;;;;;;;7.22;3.55;;;9.60;99.90;;;;;;4878805;29;20339;-66
2022/05/19 11:14:05;;;;;;;7.17;3.33;;;9.60;99.90;;;;;;4879308;29;20220;-67
2022/05/19 11:16:46;;;;;;;10.43;4.00;;;9.60;99.90;;;;;;4885023;29;20468;-66
2022/05/19 11:19:23;;;;;;;5.30;3.10;;;9.60;99.90;;;;;;4871207;29;20215;-66
2022/05/19 11:21:57;;;;;;;9.87;4.10;;;9.50;99.90;;;;;;4891432;29;20999;-67
2022/05/19 11:24:32;;;;;;;5.27;3.70;;;9.50;99.90;;;;;;4941665;29;20469;-67
2022/05/19 11:27:08;;;;;;;4.83;3.93;;;9.50;99.90;;;;;;4944811;29;20500;-66
2022/05/19 11:29:45;;;;;;;5.63;4.03;;;9.50;99.90;;;;;;4929677;29;21048;-67
2022/05/19 11:32:23;;;;;;;5.33;3.70;;;9.60;99.90;;;;;;4939927;29;20465;-67
2022/05/19 11:35:00;;;;;;;5.37;3.40;;;9.60;99.90;;;;;;4946944;29;20457;-67
2022/05/19 11:37:38;;;;;;;6.60;3.70;;;9.50;99.90;;;;;;4947386;29;20476;-67
2022/05/19 11:40:20;;;;;;;8.33;4.30;;;9.60;99.90;;;;;;4945894;29;20465;-67
2022/05/19 11:43:00;;;;;;;5.37;3.50;;;9.60;99.90;;;;;;4942298;29;20482;-67
2022/05/19 11:45:36;;;;;;;7.20;3.67;;;9.50;99.90;;;;;;4946067;29;20553;-68
2022/05/19 11:57:22;;;;;;;3.65;3.10;;;9.20;99.90;;;;;;4947657;29;20210;-67
2022/05/19 11:59:57;;;;;;;5.13;3.55;;;9.00;99.90;;;;;;4934975;29;20202;-67
2022/05/19 12:02:34;;;;;;;6.85;3.95;;;8.90;99.90;;;;;;4942079;29;20238;-67
2022/05/19 12:05:13;;;;;;;9.07;3.90;;;8.80;99.90;;;;;;4946803;29;20209;-67
2022/05/19 12:07:50;;;;;;;6.65;3.40;;;8.70;99.90;;;;;;4946698;29;20368;-67
2022/05/19 12:10:27;;;;;;;4.45;3.60;;;8.60;99.90;;;;;;4939788;29;20313;-67
2022/05/19 12:13:00;;;;;;;7.22;3.72;;;8.50;99.90;;;;;;4948071;29;20224;-67
2022/05/19 12:15:39;;;;;;;6.78;3.78;;;8.30;99.90;;;;;;4939633;29;20685;-67
2022/05/19 12:18:35;;;;;;;8.40;3.70;;;8.20;99.90;;;;;;4929053;29;20221;-67
2022/05/19 12:21:42;;;;;;;7.47;3.40;;;8.20;99.90;;;;;;4931662;29;20207;-67
2022/05/19 12:24:22;;;;;;;8.32;4.13;;;8.10;99.90;;;;;;4934524;29;20275;-67
2022/05/19 12:26:58;;;;;;;5.82;3.30;;;8.00;99.90;;;;;;4945952;29;20222;-67
2022/05/19 12:29:41;;;;;;;5.90;3.88;;;8.00;99.90;;;;;;4930746;29;20221;-67
2022/05/19 12:32:17;;;;;;;6.28;4.40;;;7.90;99.90;;;;;;4942673;29;20265;-67
2022/05/19 12:34:52;;;;;;;5.97;4.22;;;7.90;99.90;;;;;;4937388;29;20236;-67
2022/05/19 12:37:43;;;;;;;8.02;3.97;;;7.90;99.90;;;;;;4946561;29;20216;-66
2022/05/19 12:40:52;;;;;;;8.35;3.72;;;7.80;99.90;;;;;;4936800;29;20258;-66
2022/05/19 12:43:40;;;;;;;6.75;3.80;;;7.90;99.90;;;;;;4934393;29;20205;-66
2022/05/19 12:46:14;;;;;;;6.50;3.95;;;8.00;99.90;;;;;;4943916;29;20214;-66
2022/05/19 12:48:49;;;;;;;8.95;3.85;;;8.20;99.90;;;;;;4928708;29;20226;-67
2022/05/19 12:51:27;;;;;;;4.43;3.40;;;8.20;99.90;;;;;;4946005;29;20209;-66
2022/05/19 12:54:10;;;;;;;7.13;3.97;;;8.20;99.90;;;;;;4941257;29;20264;-67
2022/05/19 12:56:59;;;;;;;8.88;3.95;;;8.30;99.90;;;;;;4937603;29;20213;-67
2022/05/19 12:59:45;;;;;;;7.05;4.78;;;8.40;99.90;;;;;;4937217;29;20213;-68
2022/05/19 13:02:32;;;;;;;5.22;3.80;;;8.50;99.90;;;;;;4943602;29;20643;-68
2022/05/19 13:05:07;;;;;;;6.50;3.67;;;8.50;99.90;;;;;;4944653;29;20265;-67
2022/05/19 13:07:42;;;;;;;5.90;3.80;;;8.40;99.90;;;;;;4932966;29;20482;-67
2022/05/19 13:10:19;;;;;;;9.48;4.20;;;8.40;99.90;;;;;;4941806;29;20233;-67
2022/05/19 13:12:58;;;;;;;6.38;3.30;;;8.40;99.90;;;;;;4941934;29;20305;-68
2022/05/19 13:15:31;;;;;;;5.85;3.63;;;8.50;99.90;;;;;;4939582;29;20249;-67
2022/05/19 13:18:08;;;;;;;6.93;3.70;;;8.50;99.90;;;;;;4935347;29;20285;-68
2022/05/19 13:20:41;;;;;;;7.68;3.85;;;8.70;99.90;;;;;;4933823;29;20458;-65
2022/05/19 13:23:23;;;;;;;5.72;3.55;;;8.70;99.90;;;;;;4928842;29;20231;-65
2022/05/19 13:26:01;;;;;;;4.80;3.33;;;8.70;99.90;;;;;;4936122;29;20259;-65
2022/05/19 13:31:22;;;;;;;6.88;4.00;;;8.80;99.90;;;;;;4944472;29;20236;-66
2022/05/19 13:33:57;;;;;;;7.97;3.90;;;8.90;99.90;;;;;;4946076;29;20214;-66
2022/05/19 13:36:35;;;;;;;7.60;3.47;;;9.00;99.90;;;;;;4941017;29;20469;-66
2022/05/19 13:39:11;;;;;;;4.00;3.63;;;9.00;99.90;;;;;;4943120;29;20217;-65
2022/05/19 13:41:51;;;;;;;5.03;3.65;;;9.10;99.90;;;;;;4931502;29;20209;-66
2022/05/19 13:44:38;;;;;;;5.13;3.17;;;9.10;99.90;;;;;;4945375;29;20272;-64
2022/05/19 13:47:14;;;;;;;6.00;2.67;;;9.10;99.90;;;;;;4933535;29;20460;-66
2022/05/19 13:49:50;;;;;;;6.10;3.97;;;9.10;99.90;;;;;;4933517;29;20498;-65
2022/05/19 13:52:24;;;;;;;5.30;3.50;;;9.20;99.90;;;;;;4938432;29;20229;-64